createdAt,value
2023-03-27T00:01:40.271Z,97.20
2023-03-27T00:04:11.231Z,97.45
2023-03-27T00:06:49.981Z,97.53
2023-03-27T00:09:22.208Z,97.66
2023-03-27T00:11:53.501Z,97.66
2023-03-27T00:14:25.166Z,97.97
2023-03-27T00:16:55.118Z,97.76
2023-03-27T00:19:26.184Z,98.03
2023-03-27T00:21:57.356Z,98.03
2023-03-27T00:24:28.601Z,98.12
2023-03-27T00:26:59.332Z,98.29
2023-03-27T00:29:29.980Z,98.35
2023-03-27T00:32:01.719Z,98.29
2023-03-27T00:34:33.323Z,98.27
2023-03-27T00:37:05.816Z,98.39
2023-03-27T00:39:37.270Z,98.56
2023-03-27T00:42:08.063Z,98.67
2023-03-27T00:44:39.889Z,98.95
2023-03-27T00:47:13.897Z,98.93
2023-03-27T00:49:45.091Z,98.87
2023-03-27T00:52:17.956Z,99.11
2023-03-27T00:54:50.152Z,98.81
2023-03-27T00:57:23.101Z,99.62
2023-03-27T00:59:56.464Z,99.58
2023-03-27T01:02:28.565Z,99.62
2023-03-27T01:04:59.382Z,99.81
2023-03-27T01:07:29.872Z,99.68
2023-03-27T01:10:00.293Z,99.72
2023-03-27T01:12:46.429Z,99.82
2023-03-27T01:15:39.149Z,99.81
2023-03-27T01:18:26.163Z,99.88
2023-03-27T01:21:32.258Z,99.67
2023-03-27T01:24:18.397Z,99.39
2023-03-27T01:27:17.838Z,99.66
2023-03-27T01:30:07.725Z,99.83
2023-03-27T01:32:59.516Z,99.86
2023-03-27T01:35:30.965Z,99.87
2023-03-27T01:38:34.918Z,99.99
2023-03-27T01:41:14.155Z,99.99
2023-03-27T01:44:01.282Z,99.99
2023-03-27T01:46:37.657Z,99.99
2023-03-27T01:49:14.945Z,99.99
2023-03-27T01:52:00.086Z,99.99
2023-03-27T01:54:46.177Z,99.99
2023-03-27T01:57:26.183Z,99.92
2023-03-27T02:00:18.465Z,99.58
2023-03-27T02:03:04.171Z,99.46
2023-03-27T02:05:58.055Z,99.32
2023-03-27T02:08:36.868Z,99.29
2023-03-27T02:11:26.159Z,99.31
2023-03-27T02:14:04.285Z,99.40
2023-03-27T02:16:39.092Z,99.42
2023-03-27T02:19:20.896Z,99.39
2023-03-27T02:21:51.575Z,99.20
2023-03-27T02:24:23.764Z,99.39
2023-03-27T02:27:07.332Z,99.30
2023-03-27T02:29:50.548Z,99.33
2023-03-27T02:32:37.558Z,99.38
2023-03-27T02:35:48.016Z,99.34
2023-03-27T02:38:43.114Z,99.49
2023-03-27T02:41:19.201Z,99.55
2023-03-27T02:44:12.130Z,99.55
2023-03-27T02:47:15.524Z,99.71
2023-03-27T02:49:58.412Z,99.81
2023-03-27T02:52:57.218Z,99.59
2023-03-27T02:55:35.952Z,99.75
2023-03-27T02:58:21.770Z,99.74
2023-03-27T03:01:02.913Z,99.47
2023-03-27T03:03:44.836Z,99.59
2023-03-27T03:06:31.619Z,99.60
2023-03-27T03:09:07.872Z,99.69
2023-03-27T03:11:50.072Z,99.74
2023-03-27T03:14:24.823Z,99.54
2023-03-27T03:16:55.645Z,99.52
2023-03-27T03:19:26.044Z,99.53
2023-03-27T03:21:57.992Z,99.55
2023-03-27T03:24:28.795Z,99.54
2023-03-27T03:27:01.189Z,99.54
2023-03-27T03:29:36.921Z,99.67
2023-03-27T03:32:17.819Z,99.67
2023-03-27T03:34:48.850Z,99.70
2023-03-27T03:37:18.867Z,99.71
2023-03-27T03:39:49.644Z,99.99
2023-03-27T03:42:23.099Z,99.99
2023-03-27T03:44:55.882Z,99.98
2023-03-27T03:47:26.895Z,99.99
2023-03-27T03:49:57.846Z,99.99
2023-03-27T03:52:32.796Z,99.99
2023-03-27T03:55:07.627Z,99.99
2023-03-27T03:57:38.002Z,99.99
2023-03-27T04:00:13.683Z,99.99
2023-03-27T04:02:47.257Z,99.99
2023-03-27T04:05:19.594Z,99.99
2023-03-27T04:07:54.468Z,99.99
2023-03-27T04:10:59.766Z,99.99
2023-03-27T04:13:59.263Z,99.99
2023-03-27T04:16:35.697Z,99.99
2023-03-27T04:19:14.931Z,99.99
2023-03-27T04:21:49.247Z,99.97
2023-03-27T04:24:22.410Z,99.85
2023-03-27T04:26:54.754Z,99.78
2023-03-27T04:29:27.726Z,99.72
2023-03-27T04:32:04.310Z,99.77
2023-03-27T04:34:44.305Z,99.71
2023-03-27T04:37:33.331Z,99.82
2023-03-27T04:40:15.918Z,99.74
2023-03-27T04:42:47.281Z,99.97
2023-03-27T04:45:21.458Z,99.99
2023-03-27T04:47:54.089Z,99.99
2023-03-27T04:50:24.984Z,99.99
2023-03-27T04:52:59.735Z,99.99
2023-03-27T04:55:39.068Z,99.99
2023-03-27T04:58:13.963Z,99.99
2023-03-27T05:00:45.133Z,99.99
2023-03-27T05:03:38.458Z,99.99
2023-03-27T05:06:18.527Z,99.99
2023-03-27T05:08:49.527Z,99.99
2023-03-27T05:11:28.251Z,99.99
2023-03-27T05:13:59.459Z,99.99
2023-03-27T05:16:32.767Z,99.99
2023-03-27T05:19:04.861Z,99.99
2023-03-27T05:21:45.619Z,99.99
2023-03-27T05:24:17.216Z,99.99
2023-03-27T05:26:49.746Z,99.99
2023-03-27T05:29:20.625Z,99.99
2023-03-27T05:32:01.124Z,99.99
2023-03-27T05:34:43.839Z,99.99
2023-03-27T05:37:17.588Z,99.99
2023-03-27T05:40:11.604Z,99.99
2023-03-27T05:42:46.673Z,99.99
2023-03-27T05:45:17.314Z,99.99
2023-03-27T05:47:48.601Z,99.99
2023-03-27T05:50:21.487Z,99.99
2023-03-27T05:53:00.975Z,99.99
2023-03-27T05:55:37.692Z,99.99
2023-03-27T05:58:11.184Z,99.99
2023-03-27T06:00:44.671Z,99.99
2023-03-27T06:03:21.663Z,99.99
2023-03-27T06:06:12.271Z,99.99
2023-03-27T06:08:47.339Z,99.99
2023-03-27T06:11:19.467Z,99.99
2023-03-27T06:13:50.856Z,99.99
2023-03-27T06:16:26.832Z,99.99
2023-03-27T06:19:18.323Z,99.99
2023-03-27T06:21:54.257Z,99.99
2023-03-27T06:24:25.281Z,99.99
2023-03-27T06:26:56.704Z,99.99
2023-03-27T06:29:30.731Z,99.99
2023-03-27T06:32:02.984Z,99.99
2023-03-27T06:34:39.173Z,99.99
2023-03-27T06:37:26.857Z,99.99
2023-03-27T06:39:58.843Z,99.99
2023-03-27T06:42:29.498Z,99.99
2023-03-27T06:45:23.718Z,99.99
2023-03-27T06:48:20.857Z,99.99
2023-03-27T06:50:56.284Z,99.99
2023-03-27T06:53:28.601Z,99.99
2023-03-27T06:56:01.061Z,99.99
2023-03-27T06:58:45.112Z,99.99
2023-03-27T07:01:15.896Z,99.99
2023-03-27T07:04:08.195Z,99.99
2023-03-27T07:06:55.293Z,99.99
2023-03-27T07:09:25.470Z,99.99
2023-03-27T07:12:05.391Z,99.99
2023-03-27T07:14:38.827Z,99.99
2023-03-27T07:17:09.650Z,99.99
2023-03-27T07:19:54.630Z,99.99
2023-03-27T07:22:30.232Z,99.99
2023-03-27T07:25:07.677Z,99.99
2023-03-27T07:27:43.948Z,99.99
2023-03-27T07:30:15.425Z,99.99
2023-03-27T07:32:48.272Z,99.99
2023-03-27T07:35:20.186Z,99.99
2023-03-27T07:38:15.402Z,99.99
2023-03-27T07:41:07.948Z,99.99
2023-03-27T07:43:47.927Z,99.99
2023-03-27T07:46:19.026Z,99.99
2023-03-27T07:48:49.376Z,99.99
2023-03-27T07:51:23.841Z,99.99
2023-03-27T07:54:00.794Z,99.99
2023-03-27T07:56:37.088Z,99.99
2023-03-27T07:59:29.330Z,99.99
2023-03-27T08:02:07.095Z,99.99
2023-03-27T08:04:40.723Z,99.99
2023-03-27T08:07:13.011Z,99.99
2023-03-27T08:09:45.810Z,99.99
2023-03-27T08:12:16.806Z,99.99
2023-03-27T08:14:57.750Z,99.99
2023-03-27T08:17:32.660Z,99.99
2023-03-27T08:20:06.252Z,99.99
2023-03-27T08:22:40.612Z,99.99
2023-03-27T08:25:51.511Z,99.99
2023-03-27T08:28:28.438Z,99.99
2023-03-27T08:31:02.816Z,99.99
2023-03-27T08:33:37.695Z,99.99
2023-03-27T08:36:13.974Z,99.99
2023-03-27T08:38:46.276Z,99.99
2023-03-27T08:41:31.918Z,99.99
2023-03-27T08:44:27.420Z,99.99
2023-03-27T08:47:06.051Z,99.99
2023-03-27T08:49:53.463Z,99.99
2023-03-27T08:52:33.158Z,99.99
2023-03-27T08:55:19.764Z,99.99
2023-03-27T08:57:59.389Z,99.99
2023-03-27T09:00:42.370Z,99.99
2023-03-27T09:03:40.128Z,99.99
2023-03-27T09:06:31.263Z,99.99
2023-03-27T09:09:37.371Z,99.99
2023-03-27T09:12:42.155Z,99.99
2023-03-27T09:15:23.166Z,99.99
2023-03-27T09:18:02.595Z,99.99
2023-03-27T09:20:48.159Z,99.99
2023-03-27T09:23:47.469Z,99.99
2023-03-27T09:26:39.277Z,99.99
2023-03-27T09:29:21.046Z,99.99
2023-03-27T09:31:59.852Z,99.99
2023-03-27T09:34:35.360Z,99.99
2023-03-27T09:37:18.140Z,99.99
2023-03-27T09:39:53.671Z,99.99
2023-03-27T09:42:41.285Z,99.99
2023-03-27T09:45:15.075Z,99.99
2023-03-27T09:48:05.511Z,99.99
2023-03-27T09:50:49.389Z,99.99
2023-03-27T09:53:36.484Z,99.99
2023-03-27T09:56:22.197Z,99.99
2023-03-27T09:58:57.854Z,99.99
2023-03-27T10:01:36.041Z,99.99
2023-03-27T10:04:24.495Z,99.99
2023-03-27T10:07:02.613Z,99.99
2023-03-27T10:10:16.057Z,99.99
2023-03-27T10:13:19.824Z,99.99
2023-03-27T10:16:07.298Z,99.99
2023-03-27T10:18:59.903Z,99.99
2023-03-27T10:21:41.362Z,99.99
2023-03-27T10:24:45.937Z,99.99
2023-03-27T10:27:27.824Z,99.99
2023-03-27T10:30:35.970Z,99.99
2023-03-27T10:33:42.378Z,99.99
2023-03-27T10:36:36.479Z,99.99
2023-03-27T10:39:15.756Z,99.99
2023-03-27T10:42:12.105Z,99.80
2023-03-27T10:44:49.811Z,99.16
2023-03-27T10:47:42.035Z,99.10
2023-03-27T10:50:20.187Z,98.34
2023-03-27T10:53:06.081Z,98.22
2023-03-27T10:55:55.728Z,97.76
2023-03-27T10:58:34.106Z,96.58
2023-03-27T11:01:20.986Z,95.66
2023-03-27T11:04:04.741Z,94.80
2023-03-27T11:06:45.223Z,94.58
2023-03-27T11:09:27.518Z,94.01
2023-03-27T11:12:17.840Z,93.73
2023-03-27T11:15:23.289Z,90.70
2023-03-27T11:18:23.457Z,90.43
2023-03-27T11:21:07.230Z,90.15
2023-03-27T11:23:57.193Z,88.68
2023-03-27T11:26:48.820Z,87.07
2023-03-27T11:29:29.580Z,87.09
2023-03-27T11:32:35.991Z,72.17
2023-03-27T11:35:18.754Z,67.54
2023-03-27T11:38:09.208Z,63.84
2023-03-27T11:40:50.623Z,61.47
2023-03-27T11:43:24.092Z,58.66
2023-03-27T11:46:21.402Z,64.85
2023-03-27T11:48:57.958Z,70.46
2023-03-27T11:51:51.603Z,75.86
2023-03-27T11:54:44.206Z,81.07
2023-03-27T11:57:28.620Z,80.38
2023-03-27T12:00:26.616Z,73.60
2023-03-27T12:03:38.809Z,72.42
2023-03-27T12:06:43.011Z,75.53
2023-03-27T12:09:41.350Z,80.26
2023-03-27T12:13:02.347Z,80.52
2023-03-27T12:15:54.365Z,81.74
2023-03-27T12:19:02.126Z,83.37
2023-03-27T12:21:51.831Z,83.88
2023-03-27T12:24:59.501Z,82.31
2023-03-27T12:28:23.194Z,82.36
2023-03-27T12:31:37.801Z,81.47
2023-03-27T12:34:22.498Z,75.74
2023-03-27T12:36:54.884Z,72.05
2023-03-27T12:39:30.027Z,67.83
2023-03-27T12:42:17.156Z,65.76
2023-03-27T12:45:16.934Z,65.31
2023-03-27T12:48:13.353Z,63.24
2023-03-27T12:50:46.206Z,65.78
2023-03-27T12:53:29.926Z,69.18
2023-03-27T12:56:15.117Z,70.35
2023-03-27T12:58:49.093Z,70.82
2023-03-27T13:04:34.342Z,67.22
2023-03-27T13:07:21.380Z,68.45
2023-03-27T13:10:25.909Z,64.89
2023-03-27T13:13:08.576Z,63.15
2023-03-27T13:15:55.688Z,63.46
2023-03-27T13:18:49.703Z,62.82
2023-03-27T13:21:38.910Z,61.07
2023-03-27T13:24:34.588Z,64.36
2023-03-27T13:27:24.121Z,59.15
2023-03-27T13:29:55.760Z,62.56
2023-03-27T13:32:43.678Z,60.53
2023-03-27T13:35:42.115Z,58.03
2023-03-27T13:38:15.794Z,60.36
2023-03-27T13:41:39.636Z,65.01
2023-03-27T13:44:41.311Z,69.13
2023-03-27T13:47:30.375Z,68.42
2023-03-27T13:50:28.858Z,70.56
2023-03-27T13:53:30.844Z,68.73
2023-03-27T13:56:27.941Z,72.60
2023-03-27T13:59:52.694Z,70.03
2023-03-27T14:03:10.171Z,74.21
2023-03-27T14:06:13.407Z,70.64
2023-03-27T14:09:11.959Z,68.94
2023-03-27T14:12:47.221Z,65.57
2023-03-27T14:16:10.055Z,62.37
2023-03-27T14:19:11.456Z,61.06
2023-03-27T14:22:05.964Z,61.20
2023-03-27T14:25:02.946Z,59.89
2023-03-27T14:27:43.908Z,57.09
2023-03-27T14:30:17.422Z,58.50
2023-03-27T14:32:56.359Z,59.39
2023-03-27T14:35:37.497Z,60.17
2023-03-27T14:38:25.944Z,60.67
2023-03-27T14:41:03.069Z,61.31
2023-03-27T14:43:51.805Z,61.91
2023-03-27T14:46:25.280Z,60.43
2023-03-27T14:49:01.879Z,62.01
2023-03-27T14:51:43.949Z,65.14
2023-03-27T14:54:39.158Z,59.27
2023-03-27T14:57:17.212Z,56.31
2023-03-27T14:59:58.903Z,56.94
2023-03-27T15:02:37.049Z,56.80
2023-03-27T15:05:13.856Z,54.94
2023-03-27T15:07:50.102Z,60.06
2023-03-27T15:10:40.353Z,58.36
2023-03-27T15:13:39.358Z,61.52
2023-03-27T15:16:22.037Z,63.59
2023-03-27T15:19:27.473Z,60.05
2023-03-27T15:22:03.540Z,63.67
2023-03-27T15:24:46.047Z,59.97
2023-03-27T15:27:38.889Z,56.63
2023-03-27T15:30:33.218Z,58.09
2023-03-27T15:33:06.375Z,56.28
2023-03-27T15:35:43.941Z,56.21
2023-03-27T15:38:18.136Z,56.70
2023-03-27T15:40:52.379Z,53.80
2023-03-27T15:43:25.536Z,57.50
2023-03-27T15:46:27.701Z,55.26
2023-03-27T15:48:58.404Z,54.91
2023-03-27T15:51:28.866Z,56.87
2023-03-27T15:53:59.334Z,58.62
2023-03-27T15:56:45.598Z,55.19
2023-03-27T15:59:18.256Z,56.45
2023-03-27T16:02:12.341Z,55.81
2023-03-27T16:04:45.915Z,56.29
2023-03-27T16:07:22.221Z,58.33
2023-03-27T16:09:59.389Z,51.28
2023-03-27T16:12:51.114Z,51.99
2023-03-27T16:15:43.812Z,52.85
2023-03-27T16:18:28.340Z,56.05
2023-03-27T16:21:14.749Z,54.13
2023-03-27T16:23:46.142Z,50.39
2023-03-27T16:26:20.626Z,51.73
2023-03-27T16:28:52.287Z,52.32
2023-03-27T16:31:23.558Z,52.50
2023-03-27T16:33:54.920Z,54.13
2023-03-27T16:36:31.633Z,50.25
2023-03-27T16:39:02.022Z,49.71
2023-03-27T16:41:34.156Z,53.20
2023-03-27T16:44:04.353Z,48.87
2023-03-27T16:46:34.666Z,52.68
2023-03-27T16:49:06.213Z,51.58
2023-03-27T16:51:36.957Z,48.16
2023-03-27T16:54:08.210Z,49.79
2023-03-27T16:56:38.259Z,47.18
2023-03-27T16:59:08.523Z,46.86
2023-03-27T17:01:39.279Z,48.70
2023-03-27T17:04:09.112Z,47.96
2023-03-27T17:06:41.858Z,46.78
2023-03-27T17:09:13.676Z,45.60
2023-03-27T17:11:44.781Z,46.62
2023-03-27T17:14:15.063Z,48.99
2023-03-27T17:16:45.893Z,48.57
2023-03-27T17:19:16.460Z,48.89
2023-03-27T17:21:47.830Z,47.56
2023-03-27T17:24:20.919Z,49.47
2023-03-27T17:26:51.398Z,47.11
2023-03-27T17:29:21.444Z,50.04
2023-03-27T17:31:53.178Z,45.35
2023-03-27T17:34:24.014Z,46.71
2023-03-27T17:36:54.921Z,45.04
2023-03-27T17:39:29.155Z,48.25
2023-03-27T17:41:59.698Z,49.72
2023-03-27T17:44:30.037Z,50.66
2023-03-27T17:47:01.717Z,53.17
2023-03-27T17:49:32.936Z,50.53
2023-03-27T17:52:09.236Z,48.10
2023-03-27T17:54:41.827Z,50.09
2023-03-27T17:57:12.504Z,44.89
2023-03-27T17:59:42.399Z,44.15
2023-03-27T18:02:19.780Z,46.82
2023-03-27T18:04:53.481Z,46.41
2023-03-27T18:07:24.708Z,45.05
2023-03-27T18:09:54.956Z,45.67
2023-03-27T18:12:26.296Z,45.84
2023-03-27T18:14:57.573Z,48.69
2023-03-27T18:17:29.089Z,43.31
2023-03-27T18:19:59.252Z,43.14
2023-03-27T18:22:29.764Z,41.34
2023-03-27T18:25:00.954Z,41.49
2023-03-27T18:27:31.972Z,50.16
2023-03-27T18:30:03.288Z,52.50
2023-03-27T18:32:33.914Z,47.30
2023-03-27T18:35:05.242Z,43.15
2023-03-27T18:37:36.208Z,39.49
2023-03-27T18:40:10.752Z,41.09
2023-03-27T18:42:45.090Z,42.24
2023-03-27T18:45:18.117Z,50.20
2023-03-27T18:47:48.525Z,52.47
2023-03-27T18:50:18.459Z,55.13
2023-03-27T18:52:49.081Z,53.09
2023-03-27T18:55:20.287Z,51.89
2023-03-27T18:57:50.649Z,52.91
2023-03-27T19:00:21.521Z,43.84
2023-03-27T19:02:51.984Z,37.03
2023-03-27T19:05:22.572Z,38.48
2023-03-27T19:07:58.729Z,38.24
2023-03-27T19:10:29.556Z,37.65
2023-03-27T19:13:17.552Z,36.93
2023-03-27T19:16:14.126Z,36.63
2023-03-27T19:19:04.313Z,39.26
2023-03-27T19:21:53.578Z,35.44
2023-03-27T19:24:52.610Z,38.21
2023-03-27T19:27:24.650Z,38.59
2023-03-27T19:29:56.310Z,44.35
2023-03-27T19:32:27.089Z,48.94
2023-03-27T19:34:57.361Z,51.67
2023-03-27T19:37:27.599Z,52.35
2023-03-27T19:40:00.447Z,55.47
2023-03-27T19:42:30.733Z,56.75
2023-03-27T19:45:01.008Z,54.47
2023-03-27T19:47:31.713Z,55.83
2023-03-27T19:50:03.274Z,55.86
2023-03-27T19:53:01.182Z,56.53
2023-03-27T19:55:35.912Z,56.07
2023-03-27T19:58:06.516Z,57.90
2023-03-27T20:00:40.493Z,58.26
2023-03-27T20:03:11.651Z,60.13
2023-03-27T20:05:42.512Z,57.72
2023-03-27T20:08:12.878Z,59.32
2023-03-27T20:10:45.218Z,60.68
2023-03-27T20:13:17.153Z,62.01
2023-03-27T20:15:50.167Z,59.89
2023-03-27T20:18:23.327Z,61.39
2023-03-27T20:20:57.401Z,63.41
2023-03-27T20:23:32.837Z,61.37
2023-03-27T20:26:04.452Z,63.03
2023-03-27T20:28:39.239Z,62.51
2023-03-27T20:31:12.043Z,61.90
2023-03-27T20:33:42.709Z,61.95
2023-03-27T20:36:13.403Z,62.70
2023-03-27T20:38:44.822Z,62.88
2023-03-27T20:41:16.972Z,63.58
2023-03-27T20:43:48.583Z,63.85
2023-03-27T20:46:20.031Z,62.65
2023-03-27T20:48:54.113Z,64.74
2023-03-27T20:51:26.265Z,64.68
2023-03-27T20:53:59.290Z,64.65
2023-03-27T20:56:29.267Z,66.13
2023-03-27T20:58:59.944Z,67.07
2023-03-27T21:01:30.436Z,68.48
2023-03-27T21:04:03.184Z,68.66
2023-03-27T21:06:36.647Z,69.33
2023-03-27T21:09:08.540Z,70.29
2023-03-27T21:11:39.475Z,70.45
2023-03-27T21:14:10.083Z,70.30
2023-03-27T21:16:40.916Z,70.94
2023-03-27T21:19:12.042Z,71.58
2023-03-27T21:21:44.117Z,73.13
2023-03-27T21:24:15.155Z,71.18
2023-03-27T21:26:45.331Z,71.75
2023-03-27T21:29:16.449Z,71.78
2023-03-27T21:31:47.199Z,71.24
2023-03-27T21:34:18.040Z,72.72
2023-03-27T21:36:49.368Z,72.37
2023-03-27T21:39:19.399Z,71.86
2023-03-27T21:41:49.892Z,72.23
2023-03-27T21:44:21.419Z,73.19
2023-03-27T21:46:51.575Z,73.40
2023-03-27T21:49:21.950Z,72.74
2023-03-27T21:51:53.551Z,73.15
2023-03-27T21:54:25.269Z,73.81
2023-03-27T21:56:55.520Z,73.95
2023-03-27T21:59:26.499Z,74.86
2023-03-27T22:01:58.031Z,74.57
2023-03-27T22:04:29.686Z,74.93
2023-03-27T22:07:00.005Z,74.52
2023-03-27T22:09:29.773Z,75.50
2023-03-27T22:12:00.648Z,75.83
2023-03-27T22:14:31.442Z,75.45
2023-03-27T22:17:02.245Z,75.58
2023-03-27T22:19:32.636Z,75.52
2023-03-27T22:22:03.954Z,75.35
2023-03-27T22:24:33.863Z,76.42
2023-03-27T22:27:03.697Z,76.98
2023-03-27T22:29:34.966Z,76.88
2023-03-27T22:32:05.414Z,76.85
2023-03-27T22:34:35.802Z,75.21
2023-03-27T22:37:07.705Z,75.41
2023-03-27T22:39:37.865Z,75.86
2023-03-27T22:42:08.013Z,75.19
2023-03-27T22:44:39.304Z,76.11
2023-03-27T22:47:09.971Z,75.99
2023-03-27T22:49:40.493Z,75.52
2023-03-27T22:52:10.321Z,75.42
2023-03-27T22:54:41.634Z,75.21
2023-03-27T22:57:12.529Z,75.62
2023-03-27T22:59:43.148Z,75.37
2023-03-27T23:02:13.895Z,76.20
2023-03-27T23:04:43.767Z,76.04
2023-03-27T23:07:14.392Z,76.51
2023-03-27T23:09:44.674Z,75.93
2023-03-27T23:12:15.325Z,75.73
2023-03-27T23:14:45.140Z,75.54
2023-03-27T23:17:15.502Z,76.28
2023-03-27T23:19:45.841Z,75.46
2023-03-27T23:22:16.066Z,76.63
2023-03-27T23:24:46.162Z,75.48
2023-03-27T23:27:16.417Z,75.65
2023-03-27T23:29:46.958Z,75.76
2023-03-27T23:32:18.138Z,76.29
2023-03-27T23:34:48.548Z,75.76
2023-03-27T23:37:18.764Z,76.32
2023-03-27T23:39:49.562Z,76.84
2023-03-27T23:42:19.574Z,76.55
2023-03-27T23:44:51.147Z,77.55
2023-03-27T23:47:21.912Z,78.05
2023-03-27T23:49:51.879Z,78.22
2023-03-27T23:52:21.824Z,78.51
2023-03-27T23:54:52.022Z,77.65
2023-03-27T23:57:22.465Z,77.62
2023-03-27T23:59:53.514Z,78.44
